METAR AND TAF INFORMATION
METAR FOR LCLK
ADDS - METARS form results

(2147 UTC 03 August 2021)
Data provider http://aviationweather.gov/metar/data/
 
METAR text: LCLK 032130Z 24005KT CAVOK 29/26 Q1006 NOSIG
Conditions at: LCLK (LARNACA/LARNAX A, CY) observed 2130 UTC 03 August 2021
Temperature: 29.0°C (84°F)
Dewpoint: 26.0°C (79°F) [RH = 84%]
Pressure (altimeter): 29.70 inches Hg (1006.0 mb)
Winds: from the WSW (240 degrees) at 6 MPH (5 knots; 2.6 m/s)
Visibility: 6 or more miles (10+ km)
Ceiling: ceiling and visibility are OK
Clouds: unknown
Weather: no significant weather observed at this time

METAR text: LCLK 032100Z 22006KT CAVOK 29/26 Q1006 NOSIG
Conditions at: LCLK (LARNACA/LARNAX A, CY) observed 2100 UTC 03 August 2021
Temperature: 29.0°C (84°F)
Dewpoint: 26.0°C (79°F) [RH = 84%]
Pressure (altimeter): 29.70 inches Hg (1006.0 mb)
Winds: from the SW (220 degrees) at 7 MPH (6 knots; 3.1 m/s)
Visibility: 6 or more miles (10+ km)
Ceiling: ceiling and visibility are OK
Clouds: unknown
Weather: no significant weather observed at this time

Forecast for: LCLK (LARNACA/LARNAX A, CY)
Text: TAF LCLK 031730Z 0318/0418 29006KT CAVOK
Forecast period: 1800 UTC 03 August 2021 to 1000 UTC 04 August 2021
Forecast type: FROM: standard forecast or significant change
Winds: from the WNW (290 degrees) at 7 MPH (6 knots; 3.1 m/s)
Visibility: 6 or more miles (10+ km)
Ceiling: unknown
Clouds: missing
Weather: NSW  (no significant weather)
Text: PROB40
Forecast period: 2100 UTC 03 August 2021 to 0500 UTC 04 August 2021
Forecast type: TEMPORARY: The following changes expected for less than half the time period
Visibility: 3 miles (5 km)
Ceiling: unknown
Clouds: missing
Weather: BR  (mist)
Text: TEMPO 0321/0405 5000 BR
Forecast period: 0100 to 0500 UTC 04 August 2021
Forecast type: TEMPORARY: The following changes expected for less than half the time period
Visibility: 0.31 miles (0.50 km)
Ceiling: 100 feet AGL
Clouds: broken clouds at 100 feet AGL
Weather: BCFG  (patches of fog)
Text: PROB30
Forecast period: 1000 to 1800 UTC 04 August 2021
Forecast type: BECOMING: Conditions expected to become as follows by 1300 UTC 04 August 2021
Winds: from the SSW (210 degrees) at 18 MPH (16 knots; 8.2 m/s)
Visibility: 6 or more miles (10+ km)
Ceiling: unknown
Clouds: missing
Weather: NSW  (no significant weather)

 AIRPORT MAP

 RUNWAY INFORMATION
Runway 04 Runway length 9776 ft Runway width 148 ft
Runway elevation 11 ft Runway displaced threshold 0 ft Runway heading 45
Runway 22 Runway length 9776 ft Runway width 148 ft
Runway elevation 6 ft Runway displaced threshold 575 ft Runway heading 225

 AIRPORT FREQUENCIES
Type APP Name APP Frequency 121.2 MHZ
Type ATIS Name ATIS Frequency 126.55 MHZ
Type TWR Name TWR Frequency 119.4 MHZ

 AIRPORT NEAR NAVIGATION AIDS
Type VOR-DME Name Larnaca Frequency 112800 KHZ
Type NDB Name Larnaca Frequency 432 KHZ





Powered by Virtual Airlines Manager

Maps by Rafael Santos